Time;durP1;ratioP1;P1;durP2;ratioP2;P2;SDS_P1;SDS_P2;PMS_P1;PMS_P2;Temp;Humidity;BMP_temperature;BMP_pressure;BME280_temperature;BME280_humidity;BME280_pressure;Samples;Min_cycle;Max_cycle;Signal;HPM_P1;HPM_P2
2024/03/03 00:00:38;;;;;;;2.90;2.60;;;16.70;99.90;;;;;;5032384;28;20117;-75
2024/03/03 00:03:04;;;;;;;2.37;1.93;;;16.70;99.90;;;;;;5033211;28;20026;-72
2024/03/03 00:05:30;;;;;;;2.40;2.00;;;16.70;99.90;;;;;;5033385;28;20274;-74
2024/03/03 00:07:55;;;;;;;3.13;2.00;;;16.70;99.90;;;;;;5032536;28;20029;-75
2024/03/03 00:10:21;;;;;;;2.73;2.10;;;16.70;99.90;;;;;;5032135;28;20021;-75
2024/03/03 00:12:47;;;;;;;2.70;2.13;;;16.70;99.90;;;;;;5030842;28;20538;-75
2024/03/03 00:15:13;;;;;;;4.30;1.93;;;16.60;99.90;;;;;;5062667;28;20108;-74
2024/03/03 00:17:39;;;;;;;2.53;1.60;;;16.70;99.90;;;;;;5065427;28;20037;-76
2024/03/03 00:20:05;;;;;;;2.42;2.10;;;16.70;99.90;;;;;;5065844;28;20025;-75
2024/03/03 00:22:34;;;;;;;2.03;1.83;;;16.60;99.90;;;;;;5033840;28;20033;-76
2024/03/03 00:25:00;;;;;;;3.70;1.90;;;16.60;99.90;;;;;;5064736;28;20112;-75
2024/03/03 00:27:26;;;;;;;2.75;1.75;;;16.60;99.90;;;;;;5064790;28;20061;-76
2024/03/03 00:29:52;;;;;;;2.80;2.00;;;16.60;99.90;;;;;;5032768;28;20423;-76
2024/03/03 00:32:19;;;;;;;2.83;1.90;;;16.60;99.90;;;;;;5032813;28;20022;-75
2024/03/03 00:34:44;;;;;;;1.70;1.60;;;16.60;99.90;;;;;;5031849;28;20038;-74
2024/03/03 00:37:10;;;;;;;2.10;1.90;;;16.60;99.90;;;;;;5032671;28;20048;-75
2024/03/03 00:39:39;;;;;;;1.88;1.70;;;16.60;99.90;;;;;;5033274;28;20036;-75
2024/03/03 00:42:05;;;;;;;5.18;1.83;;;16.60;99.90;;;;;;5063351;28;20141;-76
2024/03/03 00:44:31;;;;;;;1.70;1.60;;;16.60;99.90;;;;;;5031682;28;20526;-75
2024/03/03 00:46:57;;;;;;;2.83;2.03;;;16.60;99.90;;;;;;5028358;28;20411;-75
2024/03/03 00:49:22;;;;;;;2.97;1.80;;;16.60;99.90;;;;;;5031776;28;20032;-75
2024/03/03 00:51:48;;;;;;;1.57;1.47;;;16.50;99.90;;;;;;5064817;28;20057;-76
2024/03/03 00:54:14;;;;;;;2.43;1.60;;;16.50;99.90;;;;;;5031877;28;20025;-75
2024/03/03 00:56:41;;;;;;;2.20;1.87;;;16.60;99.90;;;;;;5064424;28;20041;-77
2024/03/03 00:59:07;;;;;;;2.35;1.90;;;16.50;99.90;;;;;;5031233;28;20037;-75
2024/03/03 01:01:33;;;;;;;1.53;1.43;;;16.60;99.90;;;;;;5064857;28;20021;-76
2024/03/03 01:03:58;;;;;;;1.43;1.33;;;16.50;99.90;;;;;;5032324;28;20025;-76
2024/03/03 01:06:24;;;;;;;2.07;1.53;;;16.50;99.90;;;;;;5032597;28;20041;-76
2024/03/03 01:08:50;;;;;;;1.70;1.40;;;16.50;99.90;;;;;;5031608;28;20386;-76
2024/03/03 01:11:16;;;;;;;1.70;1.60;;;16.50;99.90;;;;;;5031430;28;20104;-76
2024/03/03 01:13:41;;;;;;;1.67;1.57;;;16.60;99.90;;;;;;5031149;28;20083;-76
2024/03/03 01:16:07;;;;;;;1.90;1.40;;;16.50;99.90;;;;;;5030903;28;20131;-75
2024/03/03 01:18:33;;;;;;;2.33;1.50;;;16.50;99.90;;;;;;5055840;28;20037;-76
2024/03/03 01:20:58;;;;;;;8.37;1.90;;;16.50;99.90;;;;;;5059900;28;20151;-75
2024/03/03 01:23:24;;;;;;;3.00;1.93;;;16.50;99.90;;;;;;5063829;28;20115;-75
2024/03/03 01:25:50;;;;;;;2.13;1.50;;;16.50;99.90;;;;;;5063832;28;20049;-75
2024/03/03 01:28:16;;;;;;;1.90;1.40;;;16.50;99.90;;;;;;5031612;28;20029;-74
2024/03/03 01:30:41;;;;;;;1.87;1.70;;;16.50;99.90;;;;;;5030396;28;20115;-76
2024/03/03 01:33:07;;;;;;;1.63;1.50;;;16.40;99.90;;;;;;5030609;28;20037;-77
2024/03/03 01:35:33;;;;;;;2.17;1.90;;;16.40;99.90;;;;;;5061413;28;20060;-75
2024/03/03 01:37:59;;;;;;;2.00;1.47;;;16.50;99.90;;;;;;5031283;28;20029;-75
2024/03/03 01:40:25;;;;;;;4.53;1.50;;;16.50;99.90;;;;;;5031375;28;20114;-75
2024/03/03 01:42:55;;;;;;;2.17;1.48;;;16.50;99.90;;;;;;5032195;28;20033;-76
2024/03/03 01:45:22;;;;;;;3.92;1.35;;;16.40;99.90;;;;;;5031667;28;20523;-75
2024/03/03 01:47:53;;;;;;;2.25;1.75;;;16.40;99.90;;;;;;5061030;28;20171;-75
2024/03/03 01:50:20;;;;;;;2.38;1.30;;;16.40;99.90;;;;;;5031616;28;20107;-75
2024/03/03 01:52:48;;;;;;;2.00;1.60;;;16.40;99.90;;;;;;5029654;28;20049;-76
2024/03/03 01:55:20;;;;;;;1.50;1.20;;;16.40;99.90;;;;;;5030798;28;20552;-76
2024/03/03 01:57:46;;;;;;;1.45;1.08;;;16.40;99.90;;;;;;5029931;28;20386;-76
2024/03/03 02:00:13;;;;;;;3.10;1.65;;;16.40;99.90;;;;;;5030021;28;20038;-75
2024/03/03 02:02:40;;;;;;;1.88;1.30;;;16.40;99.90;;;;;;5030770;28;20028;-76
2024/03/03 02:05:08;;;;;;;2.97;1.40;;;16.40;99.90;;;;;;5031326;28;20075;-76
2024/03/03 02:07:33;;;;;;;2.80;1.30;;;16.40;99.90;;;;;;5030156;28;20052;-77
2024/03/03 02:10:00;;;;;;;1.53;1.00;;;16.40;99.90;;;;;;5031110;28;20466;-75
2024/03/03 02:12:28;;;;;;;1.45;1.35;;;16.40;99.90;;;;;;5031113;28;20031;-75
2024/03/03 02:14:54;;;;;;;2.03;1.25;;;16.40;99.90;;;;;;5028628;28;20056;-75
2024/03/03 02:17:20;;;;;;;2.03;1.40;;;16.40;99.90;;;;;;5057414;28;20037;-76
2024/03/03 02:19:46;;;;;;;1.70;1.20;;;16.40;99.90;;;;;;5030009;28;20040;-75
2024/03/03 02:22:11;;;;;;;1.50;1.40;;;16.40;99.90;;;;;;5031616;28;20022;-74
2024/03/03 02:24:37;;;;;;;2.67;1.13;;;16.40;99.90;;;;;;5063032;28;20091;-75
2024/03/03 02:27:04;;;;;;;1.63;1.50;;;16.40;99.90;;;;;;5031004;28;20034;-76
2024/03/03 02:29:30;;;;;;;1.48;1.20;;;16.40;99.90;;;;;;5030973;28;20033;-76
2024/03/03 02:31:57;;;;;;;4.78;1.40;;;16.40;99.90;;;;;;5063084;28;20389;-76
2024/03/03 02:34:25;;;;;;;1.38;1.27;;;16.40;99.90;;;;;;5029816;28;20534;-75
2024/03/03 02:36:50;;;;;;;2.40;1.10;;;16.40;99.90;;;;;;5030313;28;20038;-76
2024/03/03 02:39:16;;;;;;;4.00;1.40;;;16.40;99.90;;;;;;5031181;28;20038;-76
2024/03/03 02:41:42;;;;;;;2.23;1.20;;;16.40;99.90;;;;;;5030840;28;20121;-75
2024/03/03 02:44:08;;;;;;;1.83;1.20;;;16.40;99.90;;;;;;5030695;28;20033;-75
2024/03/03 02:46:33;;;;;;;1.67;1.47;;;16.40;99.90;;;;;;5062687;28;20044;-75
2024/03/03 02:48:59;;;;;;;2.20;1.10;;;16.40;99.90;;;;;;5062376;28;20057;-76
2024/03/03 02:51:26;;;;;;;1.60;1.30;;;16.30;99.90;;;;;;5052126;28;20079;-76
2024/03/03 02:53:53;;;;;;;1.38;1.13;;;16.40;99.90;;;;;;5028883;28;20036;-76
2024/03/03 02:56:18;;;;;;;1.77;1.23;;;16.30;99.90;;;;;;5030507;28;20108;-76
2024/03/03 02:58:44;;;;;;;1.27;1.00;;;16.40;99.90;;;;;;5030277;28;20137;-75
2024/03/03 03:01:10;;;;;;;1.20;1.10;;;16.30;99.90;;;;;;5030427;28;20535;-75
2024/03/03 03:03:35;;;;;;;2.43;1.27;;;16.30;99.90;;;;;;5028896;28;20379;-76
2024/03/03 03:06:01;;;;;;;1.77;1.47;;;16.30;99.90;;;;;;5062190;28;20033;-75
2024/03/03 03:08:27;;;;;;;1.57;1.13;;;16.30;99.90;;;;;;5028725;28;20034;-75
2024/03/03 03:10:54;;;;;;;1.60;1.10;;;16.30;99.90;;;;;;5062335;28;20037;-76
2024/03/03 03:13:20;;;;;;;;;;;16.30;99.90;;;;;;5060474;28;20030;-75
2024/03/03 03:15:45;;;;;;;1.77;1.27;;;16.30;99.90;;;;;;5027958;28;19913;-77
2024/03/03 03:18:11;;;;;;;1.20;1.00;;;16.30;99.90;;;;;;5028468;28;20037;-76
2024/03/03 03:20:37;;;;;;;1.43;1.17;;;16.30;99.90;;;;;;5021494;28;20037;-75
2024/03/03 03:23:03;;;;;;;1.10;0.83;;;16.30;99.90;;;;;;5061637;28;20518;-76
2024/03/03 03:25:29;;;;;;;1.57;1.20;;;16.30;99.90;;;;;;5029756;28;20021;-75
2024/03/03 03:27:54;;;;;;;1.60;1.17;;;16.30;99.90;;;;;;5054351;28;20034;-75
2024/03/03 03:30:20;;;;;;;1.47;1.30;;;16.30;99.90;;;;;;5030329;28;20067;-75
2024/03/03 03:32:46;;;;;;;1.23;1.13;;;16.30;99.90;;;;;;5026552;28;20030;-75
2024/03/03 03:35:11;;;;;;;1.53;1.43;;;16.20;99.90;;;;;;5030002;28;20091;-75
2024/03/03 03:37:37;;;;;;;2.13;1.23;;;16.20;99.90;;;;;;5029612;28;21116;-76
2024/03/03 03:40:09;;;;;;;1.13;1.00;;;16.20;99.90;;;;;;5054182;28;20060;-75
2024/03/03 03:42:35;;;;;;;1.38;0.90;;;16.20;99.90;;;;;;5030031;28;20022;-75
2024/03/03 03:45:00;;;;;;;1.40;1.00;;;16.20;99.90;;;;;;5029851;28;20037;-75
2024/03/03 03:47:26;;;;;;;3.57;1.20;;;16.20;99.90;;;;;;5030225;28;20029;-76
2024/03/03 03:49:52;;;;;;;1.17;1.03;;;16.20;99.90;;;;;;5028812;28;20030;-75
2024/03/03 03:52:17;;;;;;;1.60;1.27;;;16.20;99.90;;;;;;5029301;28;20160;-75
2024/03/03 03:54:43;;;;;;;1.03;0.90;;;16.20;99.90;;;;;;5028678;28;20509;-74
2024/03/03 03:57:09;;;;;;;1.33;1.00;;;16.20;99.90;;;;;;5029697;28;20038;-76
2024/03/03 03:59:36;;;;;;;1.05;0.95;;;16.20;99.90;;;;;;5062130;28;20042;-76
2024/03/03 04:02:03;;;;;;;1.30;1.20;;;16.20;99.90;;;;;;5061415;28;20033;-75
2024/03/03 04:04:34;;;;;;;1.85;1.30;;;16.20;99.90;;;;;;5028282;28;20041;-75
2024/03/03 04:07:02;;;;;;;1.80;1.20;;;16.10;99.90;;;;;;5028916;28;20749;-74
2024/03/03 04:09:28;;;;;;;1.70;1.10;;;16.10;99.90;;;;;;5029455;28;20084;-76
2024/03/03 04:11:56;;;;;;;1.13;1.00;;;16.10;99.90;;;;;;5028122;28;20055;-76
2024/03/03 04:14:23;;;;;;;1.42;1.00;;;16.10;99.90;;;;;;5027040;28;20060;-75
2024/03/03 04:16:48;;;;;;;1.30;1.15;;;16.10;99.90;;;;;;5028050;28;20116;-75
2024/03/03 04:19:14;;;;;;;1.90;1.30;;;16.10;99.90;;;;;;5027830;28;20120;-75
2024/03/03 04:21:41;;;;;;;1.53;1.40;;;16.10;99.90;;;;;;5029278;28;20029;-75
2024/03/03 04:24:07;;;;;;;1.63;1.40;;;16.10;99.90;;;;;;5028913;28;20028;-75
2024/03/03 04:26:33;;;;;;;1.70;1.17;;;16.10;99.90;;;;;;5061090;28;20331;-75
2024/03/03 04:28:59;;;;;;;1.75;1.10;;;16.10;99.90;;;;;;5028170;28;20537;-74
2024/03/03 04:31:26;;;;;;;1.17;0.98;;;16.10;99.90;;;;;;5029391;28;20025;-75
2024/03/03 04:33:52;;;;;;;1.17;1.00;;;16.10;99.90;;;;;;5027989;28;20021;-76
2024/03/03 04:36:17;;;;;;;1.33;0.93;;;16.10;99.90;;;;;;5028132;28;20039;-75
2024/03/03 04:38:43;;;;;;;1.90;1.13;;;16.00;99.90;;;;;;5030151;28;20060;-75
2024/03/03 04:41:16;;;;;;;1.83;1.30;;;16.00;99.90;;;;;;5033156;28;20116;-76
2024/03/03 04:43:42;;;;;;;1.48;1.10;;;16.00;99.90;;;;;;5058953;28;20034;-75
2024/03/03 04:46:09;;;;;;;1.33;1.17;;;16.00;99.90;;;;;;5032559;28;20304;-75
2024/03/03 04:48:35;;;;;;;2.10;1.25;;;16.00;99.90;;;;;;5058719;28;20367;-74
2024/03/03 04:51:02;;;;;;;2.20;1.33;;;16.00;99.90;;;;;;5064409;28;20475;-76
2024/03/03 04:53:27;;;;;;;1.42;1.05;;;16.00;99.90;;;;;;5030136;28;20053;-75
2024/03/03 04:55:53;;;;;;;1.10;1.00;;;16.00;99.90;;;;;;5032530;28;20079;-75
2024/03/03 04:58:19;;;;;;;1.93;1.03;;;16.00;99.90;;;;;;5031145;28;20095;-76
2024/03/03 05:00:44;;;;;;;1.50;1.40;;;16.00;99.90;;;;;;5031258;28;20039;-75
2024/03/03 05:03:11;;;;;;;1.67;1.33;;;16.00;99.90;;;;;;5030533;28;20115;-75
2024/03/03 05:05:37;;;;;;;2.33;1.10;;;16.00;99.90;;;;;;5032038;28;20402;-75
2024/03/03 05:08:03;;;;;;;1.65;1.33;;;15.90;99.90;;;;;;5030980;28;20029;-75
2024/03/03 05:10:28;;;;;;;1.43;1.27;;;16.00;99.90;;;;;;5031072;28;20030;-76
2024/03/03 05:12:54;;;;;;;1.10;1.00;;;16.00;99.90;;;;;;5030992;28;20424;-75
2024/03/03 05:15:20;;;;;;;2.40;1.43;;;16.00;99.90;;;;;;5061645;28;20040;-75
2024/03/03 05:17:45;;;;;;;7.13;1.50;;;15.90;99.90;;;;;;5030825;28;20046;-74
2024/03/03 05:20:12;;;;;;;2.50;1.43;;;15.90;99.90;;;;;;5032492;28;20034;-75
2024/03/03 05:22:37;;;;;;;2.22;1.40;;;15.90;99.90;;;;;;5030738;28;20116;-76
2024/03/03 05:25:08;;;;;;;2.50;1.50;;;15.90;99.90;;;;;;5031685;28;20183;-75
2024/03/03 05:27:34;;;;;;;3.17;1.48;;;15.90;99.90;;;;;;5031988;28;20140;-75
2024/03/03 05:30:02;;;;;;;3.27;1.47;;;15.90;99.90;;;;;;5032080;28;20140;-75
2024/03/03 05:32:28;;;;;;;2.22;1.40;;;15.90;99.90;;;;;;5030256;28;20037;-76
2024/03/03 05:34:54;;;;;;;2.40;1.40;;;15.90;99.90;;;;;;5030205;28;20534;-74
2024/03/03 05:37:19;;;;;;;1.70;1.27;;;15.90;99.90;;;;;;5030405;28;20498;-75
2024/03/03 05:39:45;;;;;;;1.83;1.50;;;15.90;99.90;;;;;;5030225;28;20037;-75
2024/03/03 05:42:11;;;;;;;1.93;1.23;;;15.90;99.90;;;;;;5030669;28;20382;-76
2024/03/03 05:44:38;;;;;;;2.20;1.60;;;15.80;99.90;;;;;;5029472;28;20042;-75
2024/03/03 05:47:05;;;;;;;1.98;1.40;;;15.80;99.90;;;;;;5030120;28;20216;-76
2024/03/03 05:49:31;;;;;;;1.40;1.30;;;15.90;99.90;;;;;;5028906;28;20029;-75
2024/03/03 05:51:57;;;;;;;3.30;1.60;;;15.80;99.90;;;;;;5029812;28;20052;-76
2024/03/03 05:54:23;;;;;;;4.07;1.60;;;15.80;99.90;;;;;;5029591;28;20112;-76
2024/03/03 05:56:49;;;;;;;2.17;1.57;;;15.80;99.90;;;;;;5031003;28;20163;-75
2024/03/03 05:59:15;;;;;;;2.45;1.50;;;15.80;99.90;;;;;;5031205;28;20627;-75
2024/03/03 06:01:48;;;;;;;1.67;1.40;;;15.80;99.90;;;;;;5031383;28;20044;-75
2024/03/03 06:04:17;;;;;;;1.90;1.48;;;15.80;99.90;;;;;;5030599;28;21337;-76
2024/03/03 06:06:44;;;;;;;3.33;1.80;;;15.80;99.90;;;;;;5031032;28;20088;-75
2024/03/03 06:09:11;;;;;;;3.17;1.92;;;15.80;99.90;;;;;;5054699;28;20049;-75
2024/03/03 06:11:42;;;;;;;2.15;1.50;;;15.80;99.90;;;;;;5029969;28;20049;-74
2024/03/03 06:14:08;;;;;;;3.17;1.60;;;15.70;99.90;;;;;;5027815;28;20029;-76
2024/03/03 06:16:35;;;;;;;;;;;15.80;99.90;;;;;;5030347;28;20123;-76
2024/03/03 06:19:02;;;;;;;2.33;1.50;;;15.80;99.90;;;;;;5031158;28;19912;-75
2024/03/03 06:21:28;;;;;;;2.42;1.75;;;15.80;99.90;;;;;;5054103;28;20052;-76
2024/03/03 06:23:53;;;;;;;3.27;2.10;;;15.70;99.90;;;;;;5028807;28;20029;-77
2024/03/03 06:26:19;;;;;;;2.43;1.60;;;15.70;99.90;;;;;;5030810;28;20065;-75
2024/03/03 06:28:45;;;;;;;2.87;1.67;;;15.70;99.90;;;;;;5030502;28;20029;-75
2024/03/03 06:31:12;;;;;;;3.17;1.80;;;15.70;99.90;;;;;;5028669;28;20060;-75
2024/03/03 06:33:38;;;;;;;2.45;1.65;;;15.70;99.90;;;;;;5061823;28;20041;-75
2024/03/03 06:36:04;;;;;;;3.07;1.30;;;15.70;99.90;;;;;;5030779;28;20385;-76
2024/03/03 06:38:30;;;;;;;1.85;1.50;;;15.70;99.90;;;;;;5030561;28;20033;-75
2024/03/03 06:40:56;;;;;;;3.17;1.77;;;15.70;99.90;;;;;;5028148;28;20025;-74
2024/03/03 06:43:22;;;;;;;2.47;1.87;;;15.70;99.90;;;;;;5029206;28;20029;-74
2024/03/03 06:45:48;;;;;;;7.40;1.53;;;15.70;99.90;;;;;;5046664;28;20128;-76
2024/03/03 06:48:14;;;;;;;2.27;1.63;;;15.70;99.90;;;;;;5030544;28;20059;-75
2024/03/03 06:50:40;;;;;;;2.23;1.80;;;15.70;99.90;;;;;;5061472;28;20293;-75
2024/03/03 06:53:06;;;;;;;2.10;1.70;;;15.70;99.90;;;;;;5030014;28;20125;-75
2024/03/03 06:55:32;;;;;;;2.15;1.75;;;15.70;99.90;;;;;;5030455;28;20030;-75
2024/03/03 06:57:58;;;;;;;2.73;1.90;;;15.60;99.90;;;;;;5030358;28;20044;-75
2024/03/03 07:00:25;;;;;;;4.30;1.90;;;15.60;99.90;;;;;;5027115;28;20040;-76
2024/03/03 07:03:04;;;;;;;2.38;1.90;;;15.60;99.90;;;;;;5026458;28;20487;-75
2024/03/03 07:05:29;;;;;;;2.78;1.73;;;15.60;99.90;;;;;;5028024;28;20486;-75
2024/03/03 07:07:55;;;;;;;3.53;2.10;;;15.70;99.90;;;;;;5030042;28;20043;-76
2024/03/03 07:10:21;;;;;;;3.03;2.00;;;15.70;99.90;;;;;;5028575;28;20382;-75
2024/03/03 07:12:47;;;;;;;4.03;2.20;;;15.60;99.90;;;;;;5028875;28;20029;-75
2024/03/03 07:15:12;;;;;;;2.97;1.93;;;15.70;99.90;;;;;;5061073;28;20069;-76
2024/03/03 07:17:38;;;;;;;2.80;1.70;;;15.70;99.90;;;;;;5028588;28;20045;-75
2024/03/03 07:20:05;;;;;;;2.23;1.87;;;15.70;99.90;;;;;;5029522;28;20041;-76
2024/03/03 07:22:34;;;;;;;2.85;1.80;;;15.70;99.90;;;;;;5028066;28;20029;-74
2024/03/03 07:25:02;;;;;;;2.90;2.08;;;15.70;99.90;;;;;;5029855;28;20038;-75
2024/03/03 07:27:28;;;;;;;2.97;2.00;;;15.70;99.90;;;;;;5028681;28;20033;-76
2024/03/03 07:29:54;;;;;;;3.63;1.83;;;15.70;99.90;;;;;;5055297;28;20034;-76
2024/03/03 07:32:20;;;;;;;3.00;2.07;;;15.80;99.90;;;;;;5053278;28;20363;-76
2024/03/03 07:34:48;;;;;;;4.23;2.17;;;15.80;99.90;;;;;;5030203;28;20059;-76
2024/03/03 07:37:17;;;;;;;2.83;1.83;;;15.80;99.90;;;;;;5029798;28;20040;-75
2024/03/03 07:39:42;;;;;;;3.00;1.80;;;15.80;99.90;;;;;;5056510;28;20025;-75
2024/03/03 07:42:09;;;;;;;4.43;2.03;;;15.90;99.90;;;;;;5052641;28;20033;-76
2024/03/03 07:44:35;;;;;;;;;;;15.90;99.90;;;;;;5026639;28;20040;-74
2024/03/03 07:47:02;;;;;;;24.58;3.45;;;16.00;99.90;;;;;;5028376;28;19909;-75
2024/03/03 07:49:27;;;;;;;;;;;16.00;99.90;;;;;;5022527;28;20036;-74
2024/03/03 07:51:53;;;;;;;18.63;2.83;;;16.10;99.90;;;;;;5024981;28;19921;-75
2024/03/03 07:54:19;;;;;;;3.53;2.47;;;16.20;99.90;;;;;;5030197;28;20033;-75
2024/03/03 07:56:45;;;;;;;15.60;2.87;;;16.30;99.90;;;;;;5030184;28;20113;-75
2024/03/03 07:59:12;;;;;;;24.57;3.33;;;16.40;99.90;;;;;;5055454;28;20129;-75
2024/03/03 08:01:38;;;;;;;9.52;3.00;;;16.40;99.90;;;;;;5023577;28;20034;-74
2024/03/03 08:04:06;;;;;;;14.63;4.13;;;16.50;99.90;;;;;;5057094;28;20034;-76
2024/03/03 08:06:32;;;;;;;350.90;220.48;;;16.60;99.90;;;;;;5026464;28;20279;-76
2024/03/03 08:09:03;;;;;;;107.60;60.70;;;16.70;99.90;;;;;;5028182;28;20029;-76
2024/03/03 08:11:32;;;;;;;43.42;22.85;;;16.80;99.90;;;;;;5027297;28;20038;-75
2024/03/03 08:13:58;;;;;;;43.20;24.42;;;16.80;99.90;;;;;;5028415;28;20030;-75
2024/03/03 08:16:24;;;;;;;47.80;25.55;;;16.90;99.90;;;;;;5028160;28;20137;-76
2024/03/03 08:18:49;;;;;;;38.80;21.00;;;16.80;99.90;;;;;;5026306;28;20479;-75
2024/03/03 08:21:15;;;;;;;42.40;18.83;;;16.60;99.90;;;;;;5021714;28;20103;-74
2024/03/03 08:23:41;;;;;;;39.23;16.93;;;16.60;99.90;;;;;;5024673;28;20033;-76
2024/03/03 08:26:11;;;;;;;36.67;21.70;;;16.70;99.90;;;;;;5031529;28;20387;-75
2024/03/03 08:28:36;;;;;;;33.22;16.15;;;16.90;99.90;;;;;;5028674;28;20529;-75
2024/03/03 08:31:02;;;;;;;33.83;15.03;;;17.60;99.90;;;;;;5031270;28;20029;-78
2024/03/03 08:33:28;;;;;;;28.77;14.18;;;18.30;99.90;;;;;;5025357;28;20128;-78
2024/03/03 08:35:54;;;;;;;26.65;13.32;;;18.90;99.90;;;;;;5023911;28;20036;-76
2024/03/03 08:38:20;;;;;;;32.40;13.37;;;19.20;99.90;;;;;;5025844;28;20037;-75
2024/03/03 08:40:46;;;;;;;32.67;13.13;;;19.70;99.90;;;;;;5024548;28;20030;-75
2024/03/03 08:43:11;;;;;;;26.03;15.73;;;20.40;99.90;;;;;;5023756;28;20036;-76
2024/03/03 08:45:37;;;;;;;37.50;18.50;;;20.60;99.90;;;;;;5031569;28;20037;-77
2024/03/03 08:48:03;;;;;;;37.00;16.70;;;20.70;99.90;;;;;;5030761;28;20051;-75
2024/03/03 08:50:29;;;;;;;29.23;16.92;;;20.30;99.90;;;;;;5026152;28;20279;-75
2024/03/03 08:52:55;;;;;;;22.30;14.83;;;19.70;99.90;;;;;;5021053;28;20120;-75
2024/03/03 08:55:21;;;;;;;48.55;23.45;;;19.20;99.90;;;;;;5026919;28;20747;-76
2024/03/03 08:57:48;;;;;;;46.37;26.47;;;18.80;99.90;;;;;;5032133;28;20041;-77
2024/03/03 09:00:15;;;;;;;29.70;19.90;;;18.60;99.90;;;;;;5023495;28;20040;-75
2024/03/03 09:02:41;;;;;;;32.63;19.45;;;18.40;99.90;;;;;;5026661;28;20029;-75
2024/03/03 09:05:08;;;;;;;29.67;18.83;;;18.20;99.90;;;;;;5028673;28;20626;-76
2024/03/03 09:07:35;;;;;;;31.38;17.35;;;18.10;99.90;;;;;;5023694;28;20041;-77
2024/03/03 09:10:00;;;;;;;27.85;17.02;;;18.00;99.90;;;;;;5028346;28;20166;-75
2024/03/03 09:12:26;;;;;;;33.20;16.90;;;17.80;99.90;;;;;;5037264;28;20521;-76
2024/03/03 09:14:54;;;;;;;86.50;50.53;;;17.70;99.90;;;;;;5030502;28;20041;-75
2024/03/03 09:17:20;;;;;;;48.13;27.90;;;17.70;99.90;;;;;;5029795;28;20037;-75
2024/03/03 09:19:45;;;;;;;41.92;21.75;;;17.70;99.90;;;;;;5030750;28;20083;-75
2024/03/03 09:22:12;;;;;;;40.00;20.13;;;17.70;99.90;;;;;;5031413;28;20117;-75
2024/03/03 09:24:40;;;;;;;30.67;19.85;;;17.70;99.90;;;;;;5030106;28;20034;-75
2024/03/03 09:27:06;;;;;;;32.83;19.38;;;17.80;99.90;;;;;;5023559;28;20041;-75
2024/03/03 09:29:32;;;;;;;37.40;17.53;;;17.80;99.90;;;;;;5027288;28;20029;-76
2024/03/03 09:31:58;;;;;;;28.80;16.77;;;17.80;99.90;;;;;;5018726;28;20462;-75
2024/03/03 09:34:24;;;;;;;29.02;17.33;;;17.90;99.90;;;;;;5024322;28;20414;-76
2024/03/03 09:36:50;;;;;;;28.45;16.45;;;17.90;99.90;;;;;;5031873;28;20069;-74
2024/03/03 09:39:16;;;;;;;29.48;15.82;;;18.00;99.90;;;;;;5023934;28;20030;-76
2024/03/03 09:41:43;;;;;;;28.07;15.60;;;18.00;99.90;;;;;;5028983;28;20082;-74
2024/03/03 09:44:17;;;;;;;26.15;15.27;;;18.10;99.90;;;;;;5046313;28;20140;-75
2024/03/03 09:46:43;;;;;;;33.75;13.95;;;18.00;99.90;;;;;;5029582;28;20175;-75
2024/03/03 09:49:20;;;;;;;;;;;18.00;99.90;;;;;;5019145;28;20073;-75
2024/03/03 09:51:48;;;;;;;26.45;14.25;;;18.10;99.90;;;;;;5028482;28;19921;-74
2024/03/03 09:54:15;;;;;;;24.35;12.68;;;18.00;99.90;;;;;;5022659;28;20052;-77
2024/03/03 09:56:44;;;;;;;24.33;13.70;;;18.10;99.90;;;;;;5029072;28;20053;-74
2024/03/03 09:59:12;;;;;;;31.40;15.23;;;18.10;99.90;;;;;;5051071;28;20029;-74
2024/03/03 10:01:41;;;;;;;32.08;13.00;;;18.10;99.90;;;;;;5030804;28;20029;-75
2024/03/03 10:04:08;;;;;;;21.73;12.85;;;18.20;99.90;;;;;;5058226;28;20372;-75
2024/03/03 10:06:40;;;;;;;28.30;12.85;;;18.40;99.90;;;;;;5029819;28;20565;-76
2024/03/03 10:09:12;;;;;;;27.50;11.75;;;18.70;99.90;;;;;;5025322;28;20040;-75
2024/03/03 10:11:40;;;;;;;22.50;11.60;;;19.00;99.90;;;;;;5029913;28;20041;-76
2024/03/03 10:14:08;;;;;;;24.75;11.30;;;19.50;99.90;;;;;;5027936;28;20060;-74
2024/03/03 10:16:36;;;;;;;20.42;10.93;;;20.20;99.90;;;;;;5039973;28;20040;-74
2024/03/03 10:19:04;;;;;;;21.05;10.60;;;20.70;99.90;;;;;;5030576;28;20036;-76
2024/03/03 10:21:36;;;;;;;17.98;10.50;;;21.30;99.90;;;;;;5030575;28;20652;-74
2024/03/03 10:24:37;;;;;;;18.60;10.63;;;21.00;99.90;;;;;;5030743;28;20021;-75
2024/03/03 10:27:07;;;;;;;23.25;9.20;;;20.20;99.90;;;;;;5008531;28;20084;-75
2024/03/03 10:29:32;;;;;;;19.98;10.20;;;19.80;99.90;;;;;;5008475;28;20116;-75
2024/03/03 10:32:06;;;;;;;13.70;9.60;;;19.70;99.90;;;;;;5007829;28;20128;-76
2024/03/03 10:34:32;;;;;;;23.67;9.10;;;20.10;99.90;;;;;;5008026;28;20061;-75
2024/03/03 10:37:02;;;;;;;16.93;8.43;;;20.20;99.90;;;;;;5007371;28;20088;-74
2024/03/03 10:39:31;;;;;;;18.70;8.52;;;19.90;99.90;;;;;;4992340;28;20088;-74
2024/03/03 10:41:56;;;;;;;16.83;8.43;;;19.60;99.90;;;;;;5006164;28;20046;-73
2024/03/03 10:44:24;;;;;;;29.80;9.43;;;19.40;99.90;;;;;;5004368;28;20031;-73
2024/03/03 10:46:50;;;;;;;22.10;9.15;;;19.30;99.90;;;;;;5007092;28;20065;-74
2024/03/03 10:49:19;;;;;;;15.70;8.45;;;19.10;99.90;;;;;;5006793;28;20033;-73
2024/03/03 10:51:45;;;;;;;13.65;8.25;;;19.00;99.90;;;;;;4989175;28;20066;-73
2024/03/03 10:54:11;;;;;;;16.37;8.20;;;18.90;99.90;;;;;;5007301;28;20088;-73
2024/03/03 10:56:38;;;;;;;19.02;8.90;;;18.90;99.90;;;;;;5007445;28;20582;-73
2024/03/03 10:59:05;;;;;;;21.65;8.60;;;18.90;99.90;;;;;;5007029;28;20458;-73
2024/03/03 11:01:33;;;;;;;29.13;7.85;;;18.90;99.90;;;;;;5022954;28;20049;-72
2024/03/03 11:04:04;;;;;;;17.15;7.88;;;19.00;99.90;;;;;;5027279;28;20076;-72
2024/03/03 11:06:31;;;;;;;24.55;8.60;;;19.10;99.90;;;;;;5029792;28;20121;-76
2024/03/03 11:08:58;;;;;;;16.45;7.85;;;19.10;99.90;;;;;;5028448;28;20025;-76
2024/03/03 11:11:25;;;;;;;12.85;7.15;;;19.10;99.90;;;;;;5028913;28;20036;-75
2024/03/03 11:13:50;;;;;;;;;;;19.10;99.90;;;;;;5026437;28;20029;-74
2024/03/03 11:16:17;;;;;;;18.00;7.57;;;19.00;99.90;;;;;;5042523;28;19913;-74
2024/03/03 11:18:48;;;;;;;21.52;7.32;;;19.10;99.90;;;;;;5029801;28;20770;-75
2024/03/03 11:21:21;;;;;;;17.23;7.15;;;19.10;99.90;;;;;;5029812;28;20080;-72
2024/03/03 11:23:58;;;;;;;14.13;7.32;;;19.10;99.90;;;;;;5029897;28;20486;-72
2024/03/03 11:26:46;;;;;;;11.98;7.13;;;19.20;99.90;;;;;;5029776;28;20053;-75
2024/03/03 11:29:13;;;;;;;18.25;8.02;;;19.40;99.90;;;;;;5029484;28;20095;-72
2024/03/03 11:31:40;;;;;;;19.48;7.03;;;20.50;99.90;;;;;;5028690;28;20154;-73
2024/03/03 11:34:08;;;;;;;19.70;7.15;;;20.60;99.90;;;;;;5028162;28;20037;-72
2024/03/03 11:36:35;;;;;;;16.42;7.15;;;20.90;99.90;;;;;;5029476;28;20057;-73
2024/03/03 11:39:14;;;;;;;14.75;6.45;;;20.90;99.90;;;;;;5029916;28;20034;-73
2024/03/03 11:41:41;;;;;;;13.38;6.60;;;20.60;99.90;;;;;;5029783;28;20037;-72
2024/03/03 11:44:36;;;;;;;9.90;6.13;;;20.40;99.90;;;;;;5028179;28;20036;-73
2024/03/03 11:47:05;;;;;;;14.15;6.00;;;20.30;99.90;;;;;;5019649;28;20042;-73
2024/03/03 11:49:38;;;;;;;12.63;5.97;;;20.20;99.90;;;;;;5062462;28;20123;-73
2024/03/03 11:52:04;;;;;;;18.73;5.82;;;20.10;99.90;;;;;;5011608;28;20053;-74
2024/03/03 11:54:38;;;;;;;17.70;6.30;;;20.00;99.90;;;;;;5060077;28;20087;-72
2024/03/03 11:57:06;;;;;;;16.40;5.78;;;19.90;99.90;;;;;;5025306;28;20025;-73
2024/03/03 11:59:37;;;;;;;9.93;5.03;;;19.90;99.90;;;;;;5025266;28;20025;-75
2024/03/03 12:02:04;;;;;;;13.23;6.82;;;20.00;99.90;;;;;;5064861;28;20044;-74
2024/03/03 12:04:30;;;;;;;;;;;20.20;99.90;;;;;;5033475;28;20029;-73
2024/03/03 12:06:56;;;;;;;13.40;6.43;;;20.30;99.90;;;;;;5033341;28;20382;-71
2024/03/03 12:09:23;;;;;;;17.20;6.22;;;20.40;99.90;;;;;;5025954;28;20041;-72
2024/03/03 12:11:50;;;;;;;13.73;6.38;;;20.40;99.90;;;;;;5032785;28;20029;-73
2024/03/03 12:14:16;;;;;;;18.20;6.47;;;20.60;99.90;;;;;;5025217;28;20486;-73
2024/03/03 12:16:43;;;;;;;17.27;6.78;;;20.60;99.90;;;;;;5026979;28;20485;-74
2024/03/03 12:19:10;;;;;;;11.10;6.13;;;20.70;99.90;;;;;;5029076;28;20064;-75
2024/03/03 12:21:40;;;;;;;11.52;5.40;;;20.70;99.90;;;;;;5027449;28;20398;-73
2024/03/03 12:24:08;;;;;;;10.88;5.88;;;20.90;99.90;;;;;;5027209;28;20099;-73
2024/03/03 12:26:34;;;;;;;18.00;5.45;;;21.30;99.90;;;;;;5028076;28;20021;-72
2024/03/03 12:29:02;;;;;;;13.13;5.75;;;21.20;99.90;;;;;;5027386;28;20038;-74
2024/03/03 12:31:31;;;;;;;16.45;5.57;;;21.00;99.90;;;;;;5057825;28;20478;-72
2024/03/03 12:33:58;;;;;;;23.05;6.05;;;20.90;99.90;;;;;;5030205;28;20145;-72
2024/03/03 12:36:26;;;;;;;10.98;4.50;;;20.80;99.90;;;;;;5032139;28;20505;-73
2024/03/03 12:38:52;;;;;;;20.55;5.43;;;20.80;99.90;;;;;;5031000;28;20041;-74
2024/03/03 12:41:18;;;;;;;14.93;5.17;;;20.70;99.90;;;;;;5032362;28;20026;-75